createdAt,value
2022-07-31T00:02:08.718Z,20.70
2022-07-31T00:04:35.533Z,20.70
2022-07-31T00:07:03.537Z,20.60
2022-07-31T00:09:52.299Z,20.60
2022-07-31T00:12:17.660Z,20.60
2022-07-31T00:14:45.428Z,20.60
2022-07-31T00:17:12.230Z,20.60
2022-07-31T00:19:39.590Z,20.60
2022-07-31T00:22:06.356Z,20.50
2022-07-31T00:24:33.754Z,20.50
2022-07-31T00:27:01.953Z,20.60
2022-07-31T00:29:28.981Z,20.50
2022-07-31T00:31:56.868Z,20.50
2022-07-31T00:34:23.700Z,20.40
2022-07-31T00:36:50.895Z,20.50
2022-07-31T00:39:17.995Z,20.50
2022-07-31T00:41:45.965Z,20.40
2022-07-31T00:44:13.997Z,20.40
2022-07-31T00:46:42.026Z,20.30
2022-07-31T00:49:10.351Z,20.20
2022-07-31T00:51:38.383Z,20.30
2022-07-31T00:54:06.987Z,20.20
2022-07-31T00:56:33.901Z,20.20
2022-07-31T00:59:01.108Z,20.10
2022-07-31T01:01:28.441Z,20.10
2022-07-31T01:03:55.371Z,20.10
2022-07-31T01:06:22.585Z,20.00
2022-07-31T01:08:49.342Z,20.00
2022-07-31T01:11:18.082Z,20.00
2022-07-31T01:13:56.668Z,19.90
2022-07-31T01:16:26.900Z,19.90
2022-07-31T01:18:57.015Z,19.90
2022-07-31T01:21:37.311Z,20.00
2022-07-31T01:24:29.769Z,20.00
2022-07-31T01:27:06.368Z,19.90
2022-07-31T01:29:56.710Z,19.90
2022-07-31T01:32:32.293Z,19.90
2022-07-31T01:35:06.445Z,19.90
2022-07-31T01:37:52.102Z,19.90
2022-07-31T01:40:27.940Z,19.90
2022-07-31T01:43:01.980Z,19.90
2022-07-31T01:45:30.861Z,19.80
2022-07-31T01:47:58.410Z,19.80
2022-07-31T01:50:42.598Z,19.80
2022-07-31T01:53:22.784Z,19.80
2022-07-31T01:56:02.106Z,19.70
2022-07-31T01:58:35.646Z,19.70
2022-07-31T02:01:05.538Z,19.70
2022-07-31T02:03:44.026Z,19.70
2022-07-31T02:06:17.346Z,19.60
2022-07-31T02:08:50.162Z,19.60
2022-07-31T02:11:19.252Z,19.60
2022-07-31T02:13:50.677Z,19.60
2022-07-31T02:16:19.425Z,19.50
2022-07-31T02:18:50.107Z,19.50
2022-07-31T02:21:17.684Z,19.50
2022-07-31T02:23:44.649Z,19.50
2022-07-31T02:26:12.142Z,19.40
2022-07-31T02:28:42.612Z,19.40
2022-07-31T02:31:11.982Z,19.40
2022-07-31T02:33:42.000Z,19.30
2022-07-31T02:36:09.718Z,19.30
2022-07-31T02:38:37.434Z,19.20
2022-07-31T02:41:05.383Z,19.20
2022-07-31T02:43:34.764Z,19.20
2022-07-31T02:46:03.148Z,19.20
2022-07-31T02:48:30.207Z,19.20
2022-07-31T02:50:57.449Z,19.20
2022-07-31T02:53:25.880Z,19.10
2022-07-31T02:55:53.717Z,19.10
2022-07-31T02:58:20.548Z,19.00
2022-07-31T03:00:47.668Z,19.00
2022-07-31T03:03:14.526Z,19.00
2022-07-31T03:05:41.513Z,18.90
2022-07-31T03:08:08.356Z,18.90
2022-07-31T03:10:35.109Z,18.90
2022-07-31T03:13:03.892Z,18.90
2022-07-31T03:15:31.999Z,18.80
2022-07-31T03:17:59.361Z,18.80
2022-07-31T03:20:27.863Z,18.90
2022-07-31T03:22:55.045Z,18.80
2022-07-31T03:25:22.395Z,18.80
2022-07-31T03:27:56.213Z,18.80
2022-07-31T03:30:27.503Z,18.80
2022-07-31T03:32:55.675Z,18.80
2022-07-31T03:35:24.336Z,18.70
2022-07-31T03:37:51.762Z,18.80
2022-07-31T03:40:18.694Z,18.80
2022-07-31T03:42:48.683Z,18.80
2022-07-31T03:45:16.635Z,18.80
2022-07-31T03:47:43.692Z,18.80
2022-07-31T03:50:11.445Z,18.80
2022-07-31T03:52:39.001Z,18.70
2022-07-31T03:55:08.149Z,18.80
2022-07-31T03:57:37.901Z,18.80
2022-07-31T04:00:05.568Z,18.80
2022-07-31T04:02:34.751Z,18.80
2022-07-31T04:05:01.713Z,18.80
2022-07-31T04:07:28.458Z,18.80
2022-07-31T04:09:55.270Z,18.80
2022-07-31T04:12:22.680Z,18.90
2022-07-31T04:14:49.520Z,18.90
2022-07-31T04:17:16.717Z,18.90
2022-07-31T04:19:43.470Z,18.90
2022-07-31T04:22:10.258Z,19.00
2022-07-31T04:24:37.301Z,19.00
2022-07-31T04:27:12.221Z,19.10
2022-07-31T04:29:39.644Z,19.10
2022-07-31T04:32:07.304Z,19.20
2022-07-31T04:34:34.508Z,19.20
2022-07-31T04:37:01.332Z,19.30
2022-07-31T04:39:28.177Z,19.30
2022-07-31T04:41:56.112Z,19.40
2022-07-31T04:44:23.312Z,19.50
2022-07-31T04:46:50.076Z,19.60
2022-07-31T04:49:17.029Z,19.60
2022-07-31T04:51:43.842Z,19.70
2022-07-31T04:54:11.787Z,19.70
2022-07-31T04:56:48.449Z,19.80
2022-07-31T04:59:17.354Z,19.80
2022-07-31T05:01:45.027Z,19.80
2022-07-31T05:04:12.175Z,19.90
2022-07-31T05:06:41.227Z,19.90
2022-07-31T05:09:13.751Z,19.90
2022-07-31T05:11:45.801Z,19.90
2022-07-31T05:14:14.047Z,20.00
2022-07-31T05:16:41.129Z,19.90
2022-07-31T05:19:14.639Z,20.00
2022-07-31T05:21:46.956Z,20.00
2022-07-31T05:24:22.545Z,20.00
2022-07-31T05:26:59.506Z,20.10
2022-07-31T05:29:26.825Z,20.10
2022-07-31T05:31:59.558Z,20.20
2022-07-31T05:34:30.309Z,20.10
2022-07-31T05:37:01.802Z,20.10
2022-07-31T05:39:29.773Z,20.10
2022-07-31T05:41:56.599Z,20.10
2022-07-31T05:44:24.496Z,20.10
2022-07-31T05:49:17.343Z,20.00
2022-07-31T05:51:44.901Z,20.00
2022-07-31T05:54:11.707Z,20.10
2022-07-31T05:56:38.513Z,20.10
2022-07-31T05:59:05.326Z,20.10
2022-07-31T06:01:32.207Z,20.10
2022-07-31T06:03:59.010Z,20.10
2022-07-31T06:06:26.069Z,20.10
2022-07-31T06:08:52.891Z,20.10
2022-07-31T06:11:19.755Z,20.10
2022-07-31T06:13:46.657Z,20.10
2022-07-31T06:16:14.813Z,20.10
2022-07-31T06:18:42.351Z,20.10
2022-07-31T06:21:09.888Z,20.10
2022-07-31T06:23:36.869Z,20.00
2022-07-31T06:26:04.289Z,20.00
2022-07-31T06:28:48.507Z,20.00
2022-07-31T06:31:20.352Z,20.00
2022-07-31T06:33:48.817Z,20.00
2022-07-31T06:36:17.373Z,20.00
2022-07-31T06:38:44.201Z,20.00
2022-07-31T06:41:11.081Z,20.10
2022-07-31T06:43:37.878Z,20.10
2022-07-31T06:46:04.599Z,20.20
2022-07-31T06:48:31.313Z,20.20
2022-07-31T06:53:44.888Z,20.20
2022-07-31T06:56:11.977Z,20.20
2022-07-31T06:58:38.757Z,20.20
2022-07-31T07:01:05.743Z,20.20
2022-07-31T07:03:32.598Z,20.20
2022-07-31T07:05:59.571Z,20.20
2022-07-31T07:08:26.392Z,20.20
2022-07-31T07:10:53.157Z,20.20
2022-07-31T07:13:20.316Z,20.30
2022-07-31T07:15:48.676Z,20.30
2022-07-31T07:18:15.454Z,20.40
2022-07-31T07:20:42.894Z,20.40
2022-07-31T07:23:09.884Z,20.40
2022-07-31T07:25:36.832Z,20.40
2022-07-31T07:28:03.769Z,20.40
2022-07-31T07:30:30.502Z,20.50
2022-07-31T07:32:57.359Z,20.50
2022-07-31T07:35:24.187Z,20.50
2022-07-31T07:37:51.021Z,20.50
2022-07-31T07:40:19.705Z,20.50
2022-07-31T07:42:46.784Z,20.50
2022-07-31T07:45:14.126Z,20.50
2022-07-31T07:48:02.819Z,20.50
2022-07-31T07:50:29.120Z,20.50
2022-07-31T07:52:56.649Z,20.40
2022-07-31T07:55:23.822Z,20.40
2022-07-31T07:57:50.713Z,20.40
2022-07-31T08:00:18.014Z,20.50
2022-07-31T08:03:47.344Z,20.50
2022-07-31T08:05:33.300Z,20.60
2022-07-31T08:08:00.290Z,20.60
2022-07-31T08:10:27.078Z,20.60
2022-07-31T08:12:54.844Z,20.70
2022-07-31T08:15:21.768Z,20.70
2022-07-31T08:17:48.613Z,20.70
2022-07-31T08:20:15.431Z,20.70
2022-07-31T08:22:42.288Z,20.70
2022-07-31T08:25:11.289Z,20.70
2022-07-31T08:27:42.081Z,20.80
2022-07-31T08:30:09.892Z,20.90
2022-07-31T08:32:38.424Z,20.90
2022-07-31T08:35:05.656Z,20.90
2022-07-31T08:37:52.487Z,20.80
2022-07-31T08:40:20.724Z,20.80
2022-07-31T08:42:48.127Z,20.80
2022-07-31T08:45:15.251Z,20.70
2022-07-31T08:47:44.246Z,20.60
2022-07-31T08:50:14.220Z,20.60
2022-07-31T08:52:44.461Z,20.60
2022-07-31T08:55:54.943Z,20.60
2022-07-31T08:57:59.384Z,20.60
2022-07-31T09:00:28.774Z,20.60
2022-07-31T09:02:55.828Z,20.60
2022-07-31T09:05:24.617Z,20.60
2022-07-31T09:07:52.017Z,20.60
2022-07-31T09:10:25.059Z,20.70
2022-07-31T09:12:53.287Z,20.70
2022-07-31T09:15:21.998Z,20.70
2022-07-31T09:17:54.032Z,20.70
2022-07-31T09:20:26.654Z,20.70
2022-07-31T09:23:05.154Z,20.80
2022-07-31T09:25:32.292Z,20.80
2022-07-31T09:28:03.994Z,20.80
2022-07-31T09:30:30.800Z,20.70
2022-07-31T09:33:13.924Z,20.70
2022-07-31T09:35:49.880Z,20.70
2022-07-31T09:38:17.700Z,20.80
2022-07-31T09:40:56.790Z,20.90
2022-07-31T09:43:25.935Z,20.90
2022-07-31T09:46:00.593Z,21.00
2022-07-31T09:48:28.754Z,21.00
2022-07-31T09:50:55.876Z,21.00
2022-07-31T09:53:23.505Z,21.10
2022-07-31T09:55:51.175Z,21.10
2022-07-31T09:58:18.476Z,21.10
2022-07-31T10:00:47.905Z,21.20
2022-07-31T10:03:18.698Z,21.20
2022-07-31T10:05:46.825Z,21.30
2022-07-31T10:08:15.004Z,21.30
2022-07-31T10:10:45.948Z,21.30
2022-07-31T10:13:15.506Z,21.40
2022-07-31T10:15:45.714Z,21.30
2022-07-31T10:18:13.001Z,21.40
2022-07-31T10:20:43.982Z,21.40
2022-07-31T10:23:19.786Z,21.30
2022-07-31T10:25:53.864Z,21.40
2022-07-31T10:28:21.759Z,21.40
2022-07-31T10:30:49.428Z,21.50
2022-07-31T10:33:42.460Z,21.50
2022-07-31T10:36:07.630Z,21.50
2022-07-31T10:38:46.124Z,21.50
2022-07-31T10:41:38.104Z,21.70
2022-07-31T10:44:13.550Z,21.70
2022-07-31T10:46:40.305Z,21.80
2022-07-31T10:49:08.789Z,21.90
2022-07-31T10:51:49.463Z,22.00
2022-07-31T10:54:16.571Z,22.10
2022-07-31T10:56:46.276Z,22.10
2022-07-31T10:59:13.530Z,22.00
2022-07-31T11:01:53.006Z,22.10
2022-07-31T11:04:46.774Z,22.00
2022-07-31T11:07:19.925Z,22.00
2022-07-31T11:09:51.041Z,22.10
2022-07-31T11:12:19.613Z,22.50
2022-07-31T11:14:46.441Z,22.80
2022-07-31T11:17:13.208Z,22.80
2022-07-31T11:19:44.240Z,22.80
2022-07-31T11:22:31.304Z,22.70
2022-07-31T11:25:00.618Z,22.60
2022-07-31T11:27:32.092Z,22.60
2022-07-31T11:30:12.386Z,22.40
2022-07-31T11:32:40.663Z,22.40
2022-07-31T11:35:08.087Z,22.40
2022-07-31T11:37:46.004Z,22.40
2022-07-31T11:40:14.511Z,22.50
2022-07-31T11:42:46.242Z,22.40
2022-07-31T11:45:17.760Z,22.50
2022-07-31T11:48:11.735Z,22.50
2022-07-31T11:50:43.942Z,22.60
2022-07-31T11:53:11.652Z,22.60
2022-07-31T11:55:50.073Z,22.60
2022-07-31T11:58:18.246Z,22.50
2022-07-31T12:01:05.115Z,22.50
2022-07-31T12:03:34.467Z,22.50
2022-07-31T12:06:02.048Z,22.40
2022-07-31T12:08:29.560Z,22.40
2022-07-31T12:10:59.945Z,22.40
2022-07-31T12:13:28.053Z,22.40
2022-07-31T12:16:12.827Z,22.30
2022-07-31T12:18:50.022Z,22.30
2022-07-31T12:21:19.004Z,22.30
2022-07-31T12:23:48.224Z,22.30
2022-07-31T12:26:32.735Z,22.30
2022-07-31T12:29:08.169Z,22.30
2022-07-31T12:31:53.154Z,22.40
2022-07-31T12:34:33.570Z,22.50
2022-07-31T12:37:04.819Z,22.60
2022-07-31T12:39:54.366Z,22.70
2022-07-31T12:42:40.754Z,23.10
2022-07-31T12:45:18.343Z,23.40
2022-07-31T12:47:53.376Z,23.60
2022-07-31T12:50:21.544Z,23.60
2022-07-31T12:52:48.517Z,23.60
2022-07-31T12:55:17.125Z,23.60
2022-07-31T12:57:51.006Z,23.70
2022-07-31T13:00:22.525Z,23.70
2022-07-31T13:02:50.366Z,23.80
2022-07-31T13:05:17.301Z,23.70
2022-07-31T13:07:44.211Z,23.60
2022-07-31T13:10:20.054Z,23.60
2022-07-31T13:12:51.997Z,23.50
2022-07-31T13:15:30.798Z,23.50
2022-07-31T13:18:04.798Z,23.40
2022-07-31T13:20:32.086Z,23.50
2022-07-31T13:22:59.512Z,23.60
2022-07-31T13:25:28.117Z,23.70
2022-07-31T13:27:54.878Z,23.70
2022-07-31T13:30:21.653Z,23.70
2022-07-31T13:32:48.431Z,23.80
2022-07-31T13:35:19.608Z,24.10
2022-07-31T13:37:54.436Z,24.00
2022-07-31T13:40:44.438Z,23.90
2022-07-31T13:43:11.447Z,23.90
2022-07-31T13:45:38.520Z,24.10
2022-07-31T13:48:09.404Z,24.10
2022-07-31T13:50:37.808Z,24.30
2022-07-31T13:53:04.932Z,24.20
2022-07-31T13:55:31.984Z,24.10
2022-07-31T13:58:01.068Z,24.00
2022-07-31T14:00:29.154Z,24.00
2022-07-31T14:02:56.060Z,23.90
2022-07-31T14:05:25.238Z,23.90
2022-07-31T14:07:54.727Z,24.00
2022-07-31T14:10:22.112Z,24.00
2022-07-31T14:12:49.531Z,23.90
2022-07-31T14:15:18.119Z,23.80
2022-07-31T14:17:45.422Z,23.70
2022-07-31T14:20:12.846Z,23.70
2022-07-31T14:22:39.724Z,23.60
2022-07-31T14:25:06.770Z,23.60
2022-07-31T14:27:34.469Z,23.70
2022-07-31T14:30:01.770Z,23.70
2022-07-31T14:32:30.453Z,23.80
2022-07-31T14:34:57.242Z,23.90
2022-07-31T14:37:24.164Z,24.10
2022-07-31T14:39:50.925Z,24.20
2022-07-31T14:42:22.372Z,24.40
2022-07-31T14:44:53.380Z,24.40
2022-07-31T14:47:20.139Z,24.40
2022-07-31T14:50:06.760Z,24.30
2022-07-31T14:52:34.042Z,24.20
2022-07-31T14:55:01.344Z,24.00
2022-07-31T14:57:28.726Z,24.00
2022-07-31T14:59:55.607Z,23.90
2022-07-31T15:02:23.024Z,23.90
2022-07-31T15:04:53.653Z,23.80
2022-07-31T15:07:39.422Z,23.80
2022-07-31T15:10:09.897Z,23.90
2022-07-31T15:12:36.716Z,24.30
2022-07-31T15:15:04.017Z,24.60
2022-07-31T15:17:30.753Z,24.90
2022-07-31T15:19:57.631Z,25.30
2022-07-31T15:22:27.531Z,25.40
2022-07-31T15:24:54.361Z,25.40
2022-07-31T15:27:24.949Z,25.40
2022-07-31T15:30:04.457Z,25.50
2022-07-31T15:32:36.228Z,25.60
2022-07-31T15:35:05.043Z,25.80
2022-07-31T15:37:37.618Z,25.90
2022-07-31T15:40:07.134Z,25.50
2022-07-31T15:42:40.327Z,25.30
2022-07-31T15:45:10.053Z,25.00
2022-07-31T15:47:36.939Z,24.80
2022-07-31T15:50:04.499Z,24.70
2022-07-31T15:52:31.349Z,24.50
2022-07-31T15:54:58.246Z,24.40
2022-07-31T15:57:25.332Z,23.70
2022-07-31T15:59:55.794Z,22.90
2022-07-31T16:02:24.384Z,22.50
2022-07-31T16:04:53.129Z,22.60
2022-07-31T16:08:33.001Z,23.00
2022-07-31T16:10:16.295Z,23.40
2022-07-31T16:12:47.174Z,23.50
2022-07-31T16:15:16.005Z,23.30
2022-07-31T16:17:43.546Z,23.20
2022-07-31T16:20:26.037Z,23.10
2022-07-31T16:22:55.853Z,23.20
2022-07-31T16:25:23.075Z,23.20
2022-07-31T16:27:49.884Z,23.10
2022-07-31T16:30:16.659Z,23.10
2022-07-31T16:32:44.221Z,23.20
2022-07-31T16:35:12.530Z,23.30
2022-07-31T16:37:49.964Z,23.30
2022-07-31T16:40:30.375Z,23.20
2022-07-31T16:43:00.983Z,23.10
2022-07-31T16:45:28.461Z,22.90
2022-07-31T16:47:55.273Z,22.80
2022-07-31T16:50:22.254Z,22.70
2022-07-31T16:52:52.612Z,22.60
2022-07-31T16:55:53.096Z,22.60
2022-07-31T16:58:11.236Z,22.60
2022-07-31T17:00:39.275Z,22.50
2022-07-31T17:03:06.371Z,22.50
2022-07-31T17:05:33.221Z,22.50
2022-07-31T17:08:00.110Z,22.60
2022-07-31T17:10:27.201Z,22.60
2022-07-31T17:13:32.816Z,22.60
2022-07-31T17:15:59.650Z,22.60
2022-07-31T17:18:26.504Z,22.60
2022-07-31T17:20:56.742Z,22.60
2022-07-31T17:23:43.866Z,22.50
2022-07-31T17:26:20.718Z,22.50
2022-07-31T17:28:49.201Z,22.10
2022-07-31T17:31:16.003Z,21.50
2022-07-31T17:33:59.138Z,20.90
2022-07-31T17:36:31.191Z,20.50
2022-07-31T17:38:58.437Z,20.10
2022-07-31T17:41:26.268Z,20.00
2022-07-31T17:43:54.675Z,19.80
2022-07-31T17:47:07.699Z,19.70
2022-07-31T17:49:11.486Z,19.50
2022-07-31T17:51:59.385Z,19.50
2022-07-31T17:54:28.534Z,19.40
2022-07-31T17:56:55.569Z,19.40
2022-07-31T17:59:23.161Z,19.40
2022-07-31T18:01:51.573Z,19.40
2022-07-31T18:04:19.375Z,19.50
2022-07-31T18:06:49.423Z,19.30
2022-07-31T18:09:23.029Z,19.30
2022-07-31T18:11:50.804Z,19.30
2022-07-31T18:14:18.211Z,19.30
2022-07-31T18:16:46.122Z,19.30
2022-07-31T18:19:13.854Z,19.30
2022-07-31T18:21:41.028Z,19.40
2022-07-31T18:24:08.338Z,19.40
2022-07-31T18:26:37.845Z,19.40
2022-07-31T18:29:05.453Z,19.40
2022-07-31T18:31:35.446Z,19.50
2022-07-31T18:34:06.588Z,19.40
2022-07-31T18:36:34.558Z,19.40
2022-07-31T18:39:01.745Z,19.50
2022-07-31T18:41:29.822Z,19.40
2022-07-31T18:43:57.254Z,19.40
2022-07-31T18:46:24.888Z,19.40
2022-07-31T18:48:56.140Z,19.40
2022-07-31T18:51:24.195Z,19.40
2022-07-31T18:53:54.425Z,19.40
2022-07-31T18:56:23.159Z,19.40
2022-07-31T18:58:49.991Z,19.40
2022-07-31T19:01:16.952Z,19.40
2022-07-31T19:03:43.849Z,19.50
2022-07-31T19:06:10.716Z,19.50
2022-07-31T19:08:37.709Z,19.50
2022-07-31T19:11:04.545Z,19.50
2022-07-31T19:13:31.409Z,19.50
2022-07-31T19:15:58.298Z,19.50
2022-07-31T19:18:28.050Z,19.50
2022-07-31T19:21:17.627Z,19.50
2022-07-31T19:23:46.405Z,19.40
2022-07-31T19:26:13.375Z,19.40
2022-07-31T19:28:43.240Z,19.40
2022-07-31T19:31:10.622Z,19.50
2022-07-31T19:33:37.828Z,19.50
2022-07-31T19:36:05.045Z,19.40
2022-07-31T19:38:33.305Z,19.40
2022-07-31T19:41:00.797Z,19.50
2022-07-31T19:43:28.207Z,19.50
2022-07-31T19:46:02.750Z,19.50
2022-07-31T19:48:44.539Z,19.50
2022-07-31T19:51:13.064Z,19.50
2022-07-31T19:53:41.024Z,19.50
2022-07-31T19:56:08.346Z,19.50
2022-07-31T19:58:37.011Z,19.40
2022-07-31T20:01:05.292Z,19.40
2022-07-31T20:03:32.430Z,19.40
2022-07-31T20:05:59.454Z,19.40
2022-07-31T20:08:28.059Z,19.40
2022-07-31T20:11:02.604Z,19.40
2022-07-31T20:13:30.417Z,19.30
2022-07-31T20:15:58.304Z,19.30
2022-07-31T20:18:29.024Z,19.30
2022-07-31T20:20:58.230Z,19.30
2022-07-31T20:23:26.284Z,19.30
2022-07-31T20:25:53.671Z,19.30
2022-07-31T20:28:20.523Z,19.30
2022-07-31T20:30:47.343Z,19.30
2022-07-31T20:33:14.237Z,19.30
2022-07-31T20:35:48.383Z,19.30
2022-07-31T20:38:21.109Z,19.20
2022-07-31T20:40:54.628Z,19.20
2022-07-31T20:43:24.022Z,19.20
2022-07-31T20:45:51.779Z,19.20
2022-07-31T20:48:21.108Z,19.20
2022-07-31T20:50:48.642Z,19.30
2022-07-31T20:53:16.837Z,19.20
2022-07-31T20:55:49.476Z,19.20
2022-07-31T20:58:21.498Z,19.20
2022-07-31T21:00:49.545Z,19.20
2022-07-31T21:03:17.248Z,19.20
2022-07-31T21:05:45.280Z,19.20
2022-07-31T21:08:12.673Z,19.20
2022-07-31T21:10:39.719Z,19.20
2022-07-31T21:13:06.515Z,19.20
2022-07-31T21:15:42.689Z,19.10
2022-07-31T21:18:16.832Z,19.20
2022-07-31T21:20:50.981Z,19.10
2022-07-31T21:23:26.605Z,19.20
2022-07-31T21:25:55.285Z,19.10
2022-07-31T21:28:23.522Z,19.10
2022-07-31T21:30:53.582Z,19.10
2022-07-31T21:33:27.648Z,19.00
2022-07-31T21:35:55.322Z,19.10
2022-07-31T21:38:23.125Z,19.10
2022-07-31T21:40:50.180Z,19.10
2022-07-31T21:43:22.203Z,19.10
2022-07-31T21:45:55.502Z,19.10
2022-07-31T21:48:26.458Z,19.10
2022-07-31T21:50:54.043Z,19.00
2022-07-31T21:53:21.183Z,19.00
2022-07-31T21:55:47.986Z,19.00
2022-07-31T21:58:14.778Z,19.00
2022-07-31T22:00:42.193Z,19.00
2022-07-31T22:03:08.977Z,19.00
2022-07-31T22:05:54.728Z,19.00
2022-07-31T22:08:21.717Z,19.00
2022-07-31T22:10:51.515Z,19.00
2022-07-31T22:13:19.786Z,19.00
2022-07-31T22:15:55.633Z,19.00
2022-07-31T22:18:32.541Z,19.00
2022-07-31T22:21:00.816Z,19.00
2022-07-31T22:23:28.646Z,19.00
2022-07-31T22:25:55.659Z,19.10
2022-07-31T22:28:24.224Z,19.00
2022-07-31T22:30:52.106Z,19.00
2022-07-31T22:33:19.438Z,19.00
2022-07-31T22:35:59.644Z,19.00
2022-07-31T22:38:29.055Z,19.00
2022-07-31T22:40:56.243Z,19.00
2022-07-31T22:44:10.224Z,19.00
2022-07-31T22:46:12.348Z,19.00
2022-07-31T22:48:40.731Z,19.00
2022-07-31T22:51:08.423Z,19.00
2022-07-31T22:53:36.084Z,18.90
2022-07-31T22:56:03.042Z,18.90
2022-07-31T22:58:29.890Z,18.80
2022-07-31T23:00:57.031Z,18.80
2022-07-31T23:03:23.843Z,18.80
2022-07-31T23:06:03.673Z,18.80
2022-07-31T23:08:37.283Z,18.80
2022-07-31T23:11:04.552Z,18.80
2022-07-31T23:13:31.289Z,18.80
2022-07-31T23:15:58.066Z,18.70
2022-07-31T23:18:26.541Z,18.70
2022-07-31T23:20:53.557Z,18.70
2022-07-31T23:23:20.325Z,18.70
2022-07-31T23:25:47.137Z,18.70
2022-07-31T23:28:13.893Z,18.70
2022-07-31T23:30:40.715Z,18.70
2022-07-31T23:33:07.563Z,18.60
2022-07-31T23:35:34.407Z,18.60
2022-07-31T23:38:01.220Z,18.60
2022-07-31T23:40:27.928Z,18.60
2022-07-31T23:42:54.719Z,18.60
2022-07-31T23:45:23.360Z,18.60
2022-07-31T23:47:50.869Z,18.50
2022-07-31T23:50:17.883Z,18.50
2022-07-31T23:52:47.417Z,18.50
2022-07-31T23:55:14.302Z,18.40
2022-07-31T23:57:41.212Z,18.50
